Time;durP1;ratioP1;P1;durP2;ratioP2;P2;SDS_P1;SDS_P2;PMS_P1;PMS_P2;Temp;Humidity;BMP_temperature;BMP_pressure;BME280_temperature;BME280_humidity;BME280_pressure;Samples;Min_cycle;Max_cycle;Signal;HPM_P1;HPM_P2
2022/03/05 00:02:25;;;;;;;20.70;11.27;;;;;;;;;;4899137;29;20132;-74
2022/03/05 00:04:52;;;;;;;21.98;11.15;;;;;;;;;;4883513;29;20052;-72
2022/03/05 00:07:21;;;;;;;25.15;11.07;;;;;;;;;;4883082;29;20127;-73
2022/03/05 00:09:47;;;;;;;26.00;11.13;;;;;;;;;;4898517;29;20062;-73
2022/03/05 00:12:13;;;;;;;22.58;11.88;;;;;;;;;;4898808;29;20131;-76
2022/03/05 00:14:39;;;;;;;22.40;11.88;;;;;;;;;;4898691;29;20100;-76
2022/03/05 00:17:05;;;;;;;24.38;11.82;;;;;;;;;;4898632;29;20048;-76
2022/03/05 00:19:31;;;;;;;24.40;11.50;;;;;;;;;;4898891;29;20040;-76
2022/03/05 00:21:59;;;;;;;22.95;11.80;;;;;;;;;;4898772;29;20044;-76
2022/03/05 00:24:25;;;;;;;26.05;11.57;;;;;;;;;;4882917;29;20040;-76
2022/03/05 00:26:51;;;;;;;25.58;11.50;;;;;;;;;;4898495;29;20077;-76
2022/03/05 00:29:17;;;;;;;27.00;11.32;;;;;;;;;;4898416;29;20507;-76
2022/03/05 00:31:43;;;;;;;22.95;11.50;;;;;;;;;;4898627;29;20389;-75
2022/03/05 00:34:09;;;;;;;23.52;11.98;;;;;;;;;;4898361;29;20397;-76
2022/03/05 00:36:37;;;;;;;27.40;12.38;;;;;;;;;;4898455;29;20474;-75
2022/03/05 00:39:04;;;;;;;26.65;12.05;;;1.30;99.90;;;;;;4898320;29;20493;-75
2022/03/05 00:41:30;;;;;;;33.45;13.32;;;;;;;;;;4898308;29;20056;-75
2022/03/05 00:43:56;;;;;;;41.10;14.95;;;;;;;;;;4898285;29;20051;-75
2022/03/05 00:46:22;;;;;;;66.80;19.83;;;;;;;;;;4882555;29;20090;-76
2022/03/05 00:48:49;;;;;;;115.90;27.13;;;;;;;;;;4898163;29;20408;-75
2022/03/05 00:51:15;;;;;;;92.70;29.33;;;;;;;;;;4898089;29;20045;-75
2022/03/05 00:53:41;;;;;;;93.53;28.50;;;;;;;;;;4898049;29;20100;-75
2022/03/05 00:56:07;;;;;;;62.22;22.00;;;;;;;;;;4897957;29;20044;-75
2022/03/05 00:58:33;;;;;;;55.33;19.48;;;;;;;;;;4897923;29;20517;-75
2022/03/05 01:00:59;;;;;;;34.80;15.45;;;;;;;;;;4897891;29;20135;-75
2022/03/05 01:03:25;;;;;;;30.30;13.70;;;;;;;;;;4897958;29;20052;-75
2022/03/05 01:05:53;;;;;;;25.40;12.80;;;;;;;;;;4898028;29;20040;-75
2022/03/05 01:08:19;;;;;;;24.05;12.00;;;;;;;;;;4897602;29;20052;-75
2022/03/05 01:10:45;;;;;;;27.38;12.73;;;;;;;;;;4897862;29;20473;-75
2022/03/05 01:13:12;;;;;;;23.60;12.15;;;;;;;;;;4897819;29;20045;-75
2022/03/05 01:15:38;;;;;;;24.38;12.57;;;;;;;;;;4898004;29;20132;-75
2022/03/05 01:18:04;;;;;;;29.15;13.18;;;;;;;;;;4897782;29;20055;-76
2022/03/05 01:20:30;;;;;;;23.73;11.77;;;;;;;;;;4897586;29;20055;-75
2022/03/05 01:22:56;;;;;;;26.90;11.93;;;;;;;;;;4897569;29;20055;-75
2022/03/05 01:25:22;;;;;;;25.40;12.32;;;;;;;;;;4897511;29;20048;-74
2022/03/05 01:27:48;;;;;;;23.75;11.48;;;;;;;;;;4897329;29;20045;-73
2022/03/05 01:30:14;;;;;;;26.15;12.38;;;;;;;;;;4898784;29;20092;-75
2022/03/05 01:32:41;;;;;;;29.20;12.20;;;;;;;;;;4897617;29;20127;-74
2022/03/05 01:35:07;;;;;;;31.48;12.27;;;;;;;;;;4881351;29;20128;-74
2022/03/05 01:37:33;;;;;;;26.42;12.20;;;;;;;;;;4897339;29;20044;-73
2022/03/05 01:39:59;;;;;;;27.23;12.20;;;;;;;;;;4897387;29;20049;-73
2022/03/05 01:42:26;;;;;;;27.67;12.25;;;;;;;;;;4897320;29;20049;-73
2022/03/05 01:44:52;;;;;;;27.25;12.50;;;;;;;;;;4897378;29;20060;-73
2022/03/05 01:47:19;;;;;;;29.95;13.48;;;;;;;;;;4897189;29;20055;-73
2022/03/05 01:49:45;;;;;;;27.48;12.85;;;;;;;;;;4897166;29;20096;-73
2022/03/05 01:52:11;;;;;;;30.75;13.43;;;0.50;99.90;;;;;;4897216;29;20076;-73
2022/03/05 01:54:37;;;;;;;30.13;12.90;;;;;;;;;;4897307;29;20037;-70
2022/03/05 01:57:04;;;;;;;30.00;12.93;;;;;;;;;;4897099;29;20080;-71
2022/03/05 01:59:30;;;;;;;32.28;12.15;;;;;;;;;;4897005;29;20045;-71
2022/03/05 02:01:56;;;;;;;30.58;13.18;;;;;;;;;;4897111;29;20052;-70
2022/03/05 02:04:22;;;;;;;28.55;12.77;;;;;;;;;;4881580;29;20136;-73
2022/03/05 02:06:48;;;;;;;26.65;12.13;;;;;;;;;;4897037;29;20094;-73
2022/03/05 02:09:15;;;;;;;30.08;12.55;;;;;;;;;;4896767;29;20053;-73
2022/03/05 02:11:41;;;;;;;31.48;12.43;;;;;;;;;;4881605;29;20054;-73
2022/03/05 02:14:07;;;;;;;26.98;12.30;;;;;;;;;;4897076;29;20073;-71
2022/03/05 02:16:33;;;;;;;25.23;11.45;;;;;;;;;;4898202;29;20487;-70
2022/03/05 02:18:59;;;;;;;32.13;13.65;;;;;;;;;;4896953;29;20051;-70
2022/03/05 02:21:26;;;;;;;29.00;12.73;;;;;;;;;;4896847;29;20045;-71
2022/03/05 02:23:53;;;;;;;22.77;10.82;;;;;;;;;;4896930;29;20053;-75
2022/03/05 02:26:19;;;;;;;26.50;12.43;;;;;;;;;;4896849;29;20048;-73
2022/03/05 02:28:45;;;;;;;26.13;12.55;;;;;;;;;;4896803;29;20049;-73
2022/03/05 02:31:11;;;;;;;33.78;13.02;;;;;;;;;;4896935;29;20532;-70
2022/03/05 02:33:38;;;;;;;26.83;13.27;;;;;;;;;;4896879;29;20080;-70
2022/03/05 02:36:04;;;;;;;31.73;13.27;;;;;;;;;;4898185;29;20045;-70
2022/03/05 02:38:30;;;;;;;31.73;12.73;;;;;;;;;;4881309;29;20044;-70
2022/03/05 02:40:56;;;;;;;29.88;12.20;;;;;;;;;;4896738;29;20052;-70
2022/03/05 02:43:23;;;;;;;26.52;12.15;;;;;;;;;;4896653;29;20045;-70
2022/03/05 02:45:50;;;;;;;31.58;11.73;;;0.40;99.90;;;;;;4897093;29;20497;-70
2022/03/05 02:48:16;;;;;;;30.20;12.35;;;0.00;99.90;;;;;;4901843;29;20055;-70
2022/03/05 02:50:44;;;;;;;24.33;11.38;;;;;;;;;;4900334;29;20047;-70
2022/03/05 02:53:10;;;;;;;25.88;11.23;;;;;;;;;;4900112;29;20044;-73
2022/03/05 02:55:36;;;;;;;26.23;11.93;;;;;;;;;;4900215;29;20568;-73
2022/03/05 02:58:03;;;;;;;24.15;11.00;;;0.20;99.90;;;;;;4900360;29;20565;-73
2022/03/05 03:00:29;;;;;;;24.27;11.07;;;;;;;;;;4900235;29;20052;-73
2022/03/05 03:02:55;;;;;;;25.30;11.27;;;;;;;;;;4900061;29;20048;-73
2022/03/05 03:05:21;;;;;;;22.15;10.50;;;;;;;;;;4900299;29;20059;-73
2022/03/05 03:07:48;;;;;;;26.42;11.35;;;;;;;;;;4899746;29;20052;-73
2022/03/05 03:10:15;;;;;;;26.15;11.18;;;;;;;;;;4919544;29;20480;-73
2022/03/05 03:12:41;;;;;;;25.80;11.70;;;0.00;99.90;;;;;;4902891;29;20044;-73
2022/03/05 03:15:09;;;;;;;28.33;11.45;;;0.70;99.90;;;;;;4902777;29;20040;-73
2022/03/05 03:17:41;;;;;;;23.63;11.32;;;;;;;;;;4903252;29;20052;-73
2022/03/05 03:20:08;;;;;;;26.17;10.82;;;-0.20;99.90;;;;;;4902954;29;20048;-73
2022/03/05 03:22:34;;;;;;;26.88;10.73;;;;;;;;;;4902445;29;20052;-73
2022/03/05 03:25:00;;;;;;;22.65;10.40;;;;;;;;;;4902832;29;20067;-74
2022/03/05 03:27:26;;;;;;;25.85;10.77;;;;;;;;;;4887048;29;20044;-74
2022/03/05 03:29:53;;;;;;;29.42;10.98;;;;;;;;;;4902710;29;20043;-74
2022/03/05 03:32:19;;;;;;;24.77;10.75;;;;;;;;;;4902798;29;20103;-74
2022/03/05 03:34:45;;;;;;;25.73;10.50;;;;;;;;;;4902689;29;20051;-74
2022/03/05 03:37:11;;;;;;;22.30;9.75;;;;;;;;;;4902602;29;20043;-71
2022/03/05 03:39:37;;;;;;;23.88;10.68;;;;;;;;;;4902536;29;20043;-71
2022/03/05 03:42:03;;;;;;;23.65;10.25;;;;;;;;;;4902526;29;20044;-71
2022/03/05 03:44:29;;;;;;;22.45;9.65;;;;;;;;;;4902493;29;20047;-72
2022/03/05 03:46:56;;;;;;;24.13;11.35;;;;;;;;;;4902400;29;20044;-71
2022/03/05 03:49:23;;;;;;;30.33;11.30;;;;;;;;;;4902226;29;20056;-71
2022/03/05 03:51:49;;;;;;;20.33;9.77;;;;;;;;;;4902383;29;20062;-71
2022/03/05 03:54:15;;;;;;;25.45;11.30;;;;;;;;;;4902755;29;20035;-71
2022/03/05 03:56:41;;;;;;;22.08;10.18;;;;;;;;;;4902106;29;20048;-71
2022/03/05 03:59:07;;;;;;;24.33;10.25;;;;;;;;;;4902468;29;20067;-71
2022/03/05 04:01:33;;;;;;;24.85;10.45;;;;;;;;;;4886915;29;20079;-74
2022/03/05 04:04:00;;;;;;;24.25;10.27;;;;;;;;;;4902170;29;20042;-74
2022/03/05 04:08:41;;;;;;;24.90;10.57;;;;;;;;;;4902012;29;20051;-74
2022/03/05 04:09:12;;;;;;;24.02;10.23;;;;;;;;;;4901893;29;20087;-74
2022/03/05 04:11:38;;;;;;;27.00;11.20;;;;;;;;;;4901992;29;20052;-74
2022/03/05 04:14:04;;;;;;;26.17;10.57;;;;;;;;;;4901997;29;20204;-74
2022/03/05 04:16:30;;;;;;;25.98;10.38;;;;;;;;;;4901928;29;20416;-74
2022/03/05 04:18:56;;;;;;;25.70;11.23;;;;;;;;;;4901999;29;20138;-74
2022/03/05 04:21:22;;;;;;;26.67;10.73;;;;;;;;;;4901832;29;20456;-74
2022/03/05 04:23:48;;;;;;;24.88;10.68;;;;;;;;;;4901972;29;20036;-74
2022/03/05 04:26:14;;;;;;;23.00;10.57;;;;;;;;;;4901826;29;20044;-74
2022/03/05 04:28:40;;;;;;;24.40;10.20;;;;;;;;;;4901716;29;20099;-74
2022/03/05 04:31:06;;;;;;;29.08;11.23;;;;;;;;;;4901881;29;20044;-74
2022/03/05 04:33:33;;;;;;;26.83;11.45;;;;;;;;;;4901634;29;20576;-74
2022/03/05 04:35:59;;;;;;;25.27;10.07;;;;;;;;;;4901740;29;20122;-74
2022/03/05 04:38:25;;;;;;;26.70;10.65;;;;;;;;;;4901702;29;20116;-74
2022/03/05 04:40:51;;;;;;;25.98;11.55;;;;;;;;;;4901345;29;20052;-74
2022/03/05 04:43:17;;;;;;;26.40;11.15;;;;;;;;;;4901664;29;20108;-74
2022/03/05 04:45:43;;;;;;;23.88;11.32;;;;;;;;;;4901486;29;20130;-74
2022/03/05 04:48:09;;;;;;;27.30;11.75;;;;;;;;;;4901513;29;20098;-74
2022/03/05 04:50:35;;;;;;;29.95;10.95;;;;;;;;;;4901355;29;20040;-74
2022/03/05 04:53:02;;;;;;;24.58;10.43;;;;;;;;;;4901236;29;20568;-74
2022/03/05 04:55:29;;;;;;;31.02;11.43;;;;;;;;;;4901536;29;20047;-74
2022/03/05 04:57:55;;;;;;;27.83;11.85;;;;;;;;;;4901040;29;20052;-74
2022/03/05 05:00:21;;;;;;;27.83;11.90;;;;;;;;;;4918214;29;20078;-74
2022/03/05 05:02:48;;;;;;;29.05;11.25;;;;;;;;;;4901038;29;20044;-74
2022/03/05 05:05:14;;;;;;;30.67;11.45;;;;;;;;;;4901005;29;20473;-74
2022/03/05 05:07:40;;;;;;;26.77;10.95;;;;;;;;;;4900978;29;20051;-74
2022/03/05 05:10:06;;;;;;;27.45;10.40;;;0.00;99.90;;;;;;4917042;29;20067;-74
2022/03/05 05:12:32;;;;;;;29.25;11.40;;;;;;;;;;4900912;29;20086;-74
2022/03/05 05:14:58;;;;;;;29.13;11.20;;;;;;;;;;4900847;29;20047;-74
2022/03/05 05:17:25;;;;;;;26.38;11.63;;;;;;;;;;4900985;29;20044;-74
2022/03/05 05:19:51;;;;;;;24.60;11.60;;;;;;;;;;4901123;29;20401;-74
2022/03/05 05:22:17;;;;;;;31.10;11.80;;;;;;;;;;4900992;29;20036;-74
2022/03/05 05:24:43;;;;;;;26.20;11.60;;;;;;;;;;4901042;29;20100;-74
2022/03/05 05:27:09;;;;;;;25.58;11.60;;;;;;;;;;4917693;29;20126;-74
2022/03/05 05:29:35;;;;;;;28.85;12.63;;;;;;;;;;4917798;29;20127;-74
2022/03/05 05:32:01;;;;;;;25.95;11.80;;;;;;;;;;4900874;29;20036;-74
2022/03/05 05:34:27;;;;;;;31.02;13.70;;;;;;;;;;4900489;29;20481;-74
2022/03/05 05:36:53;;;;;;;27.73;10.95;;;;;;;;;;4900340;29;20080;-74
2022/03/05 05:39:19;;;;;;;30.15;11.50;;;;;;;;;;4900589;29;20389;-74
2022/03/05 05:41:46;;;;;;;23.08;11.05;;;;;;;;;;4917479;29;20044;-74
2022/03/05 05:44:12;;;;;;;29.70;11.70;;;;;;;;;;4900283;29;20050;-74
2022/03/05 05:46:38;;;;;;;27.23;11.00;;;;;;;;;;4900820;29;20059;-72
2022/03/05 05:49:05;;;;;;;25.95;12.45;;;;;;;;;;4900304;29;20037;-74
2022/03/05 05:51:32;;;;;;;26.35;11.63;;;;;;;;;;4900420;29;20389;-71
2022/03/05 05:53:58;;;;;;;29.77;12.68;;;;;;;;;;4900628;29;20055;-71
2022/03/05 05:56:25;;;;;;;25.52;11.25;;;;;;;;;;4900531;29;20492;-74
2022/03/05 05:58:51;;;;;;;28.50;12.23;;;;;;;;;;4900245;29;20500;-74
2022/03/05 06:01:20;;;;;;;25.25;11.73;;;;;;;;;;4900075;29;20054;-74
2022/03/05 06:03:48;;;;;;;24.05;11.05;;;;;;;;;;4917049;29;20036;-74
2022/03/05 06:06:15;;;;;;;25.75;11.30;;;;;;;;;;4899801;29;20049;-74
2022/03/05 06:08:41;;;;;;;29.92;11.50;;;;;;;;;;4899774;29;20414;-74
2022/03/05 06:11:07;;;;;;;22.88;11.70;;;;;;;;;;4900323;29;20052;-75
2022/03/05 06:13:33;;;;;;;26.23;11.27;;;;;;;;;;4900560;29;20127;-75
2022/03/05 06:15:59;;;;;;;25.15;10.45;;;;;;;;;;4900409;29;20041;-75
2022/03/05 06:18:25;;;;;;;25.52;11.25;;;;;;;;;;4900032;29;20127;-74
2022/03/05 06:20:51;;;;;;;27.35;12.27;;;;;;;;;;4902157;29;20052;-74
2022/03/05 06:23:18;;;;;;;30.30;11.88;;;;;;;;;;4904284;29;20155;-72
2022/03/05 06:25:44;;;;;;;34.10;12.32;;;;;;;;;;4903819;29;20056;-72
2022/03/05 06:28:11;;;;;;;25.77;11.23;;;;;;;;;;4903934;29;20056;-71
2022/03/05 06:30:37;;;;;;;31.35;12.43;;;;;;;;;;4920711;29;20048;-71
2022/03/05 06:33:03;;;;;;;28.67;11.73;;;;;;;;;;4888096;29;20121;-74
2022/03/05 06:35:29;;;;;;;28.52;12.55;;;;;;;;;;4903984;29;20127;-75
2022/03/05 06:37:55;;;;;;;28.85;12.65;;;;;;;;;;4903610;29;20047;-75
2022/03/05 06:40:21;;;;;;;25.95;11.40;;;;;;;;;;4903326;29;20044;-75
2022/03/05 06:42:48;;;;;;;25.50;11.27;;;;;;;;;;4888370;29;20448;-75
2022/03/05 06:45:14;;;;;;;26.60;11.82;;;;;;;;;;4903441;29;20051;-74
2022/03/05 06:47:40;;;;;;;21.23;10.70;;;-0.30;99.90;;;;;;4903431;29;20059;-74
2022/03/05 06:50:08;;;;;;;27.33;11.68;;;-0.40;99.90;;;;;;4903495;29;20084;-75
2022/03/05 06:52:34;;;;;;;29.98;11.77;;;;;;;;;;4903660;29;20075;-75
2022/03/05 06:55:00;;;;;;;21.80;10.93;;;;;;;;;;4903379;29;20044;-74
2022/03/05 06:57:27;;;;;;;28.35;11.25;;;;;;;;;;4903481;29;20048;-75
2022/03/05 06:59:53;;;;;;;26.23;11.27;;;;;;;;;;4903236;29;20047;-74
2022/03/05 07:02:20;;;;;;;24.85;11.13;;;;;;;;;;4903411;29;20047;-75
2022/03/05 07:04:46;;;;;;;23.55;10.38;;;;;;;;;;4887604;29;20040;-75
2022/03/05 07:07:12;;;;;;;25.05;10.65;;;;;;;;;;4902995;29;20040;-75
2022/03/05 07:09:38;;;;;;;24.02;11.88;;;;;;;;;;4902921;29;20052;-75
2022/03/05 07:12:05;;;;;;;22.90;10.77;;;;;;;;;;4887568;29;20430;-74
2022/03/05 07:14:31;;;;;;;20.27;9.73;;;;;;;;;;4887509;29;20442;-74
2022/03/05 07:16:57;;;;;;;23.08;10.23;;;;;;;;;;4887318;29;20476;-75
2022/03/05 07:19:23;;;;;;;22.00;10.55;;;;;;;;;;4887338;29;20514;-74
2022/03/05 07:21:50;;;;;;;30.08;11.35;;;;;;;;;;4902940;29;20044;-74
2022/03/05 07:24:16;;;;;;;26.83;10.48;;;;;;;;;;4902669;29;20131;-75
2022/03/05 07:26:42;;;;;;;24.65;10.48;;;;;;;;;;4902498;29;20054;-75
2022/03/05 07:29:08;;;;;;;24.88;10.93;;;;;;;;;;4887053;29;20404;-74
2022/03/05 07:31:34;;;;;;;24.13;10.63;;;;;;;;;;4901812;29;20047;-74
2022/03/05 07:34:01;;;;;;;23.08;10.70;;;;;;;;;;4902624;29;20481;-74
2022/03/05 07:36:27;;;;;;;23.45;10.55;;;;;;;;;;4902642;29;20036;-75
2022/03/05 07:38:53;;;;;;;28.58;11.25;;;;;;;;;;4902872;29;20063;-75
2022/03/05 07:41:19;;;;;;;21.50;10.63;;;;;;;;;;4902857;29;20129;-75
2022/03/05 07:43:45;;;;;;;25.40;10.35;;;;;;;;;;4902838;29;20052;-75
2022/03/05 07:46:11;;;;;;;26.63;11.77;;;;;;;;;;4902724;29;20075;-74
2022/03/05 07:48:37;;;;;;;26.77;11.30;;;;;;;;;;4902375;29;20079;-74
2022/03/05 07:51:04;;;;;;;25.80;11.25;;;;;;;;;;4902454;29;20044;-74
2022/03/05 07:53:31;;;;;;;27.40;10.85;;;;;;;;;;4902345;29;20072;-74
2022/03/05 07:55:57;;;;;;;25.92;11.38;;;;;;;;;;4902322;29;20552;-74
2022/03/05 07:58:23;;;;;;;26.42;10.07;;;;;;;;;;4902437;29;20493;-74
2022/03/05 08:00:49;;;;;;;23.48;10.18;;;;;;;;;;4902623;29;20043;-74
2022/03/05 08:03:15;;;;;;;24.40;11.10;;;;;;;;;;4902396;29;20043;-74
2022/03/05 08:05:43;;;;;;;32.97;11.45;;;;;;;;;;4902442;29;20389;-74
2022/03/05 08:08:09;;;;;;;31.67;12.07;;;;;;;;;;4901798;29;20052;-71
2022/03/05 08:10:35;;;;;;;29.48;11.30;;;;;;;;;;4901868;29;20052;-71
2022/03/05 08:13:01;;;;;;;24.65;10.48;;;;;;;;;;4901709;29;20048;-71
2022/03/05 08:15:27;;;;;;;27.55;10.75;;;;;;;;;;4901871;29;20051;-71
2022/03/05 08:18:00;;;;;;;24.63;11.35;;;1.00;99.90;;;;;;4902176;29;20044;-71
2022/03/05 08:20:26;;;;;;;;;;;1.10;99.90;;;;;;4902581;29;20088;-71
2022/03/05 08:22:53;;;;;;;22.10;10.38;;;;;;;;;;4901986;29;19966;-71
2022/03/05 08:25:19;;;;;;;28.58;12.27;;;;;;;;;;4902017;29;20392;-73
2022/03/05 08:27:46;;;;;;;27.10;12.23;;;;;;;;;;4901592;29;20476;-71
2022/03/05 08:30:12;;;;;;;23.23;10.95;;;;;;;;;;4901946;29;20044;-71
2022/03/05 08:32:38;;;;;;;30.85;12.48;;;;;;;;;;4886056;29;20404;-71
2022/03/05 08:35:05;;;;;;;32.15;12.60;;;1.30;99.90;;;;;;4901653;29;20044;-71
2022/03/05 08:37:31;;;;;;;30.30;11.23;;;;;;;;;;4886091;29;20432;-71
2022/03/05 08:39:57;;;;;;;26.17;11.93;;;;;;;;;;4901555;29;20054;-74
2022/03/05 08:42:24;;;;;;;23.48;10.57;;;;;;;;;;4901497;29;20036;-74
2022/03/05 08:44:50;;;;;;;27.52;12.48;;;;;;;;;;4901285;29;20036;-74
2022/03/05 08:47:16;;;;;;;25.75;11.30;;;;;;;;;;4901677;29;20044;-74
2022/03/05 08:49:42;;;;;;;29.02;11.80;;;;;;;;;;4918495;29;20032;-74
2022/03/05 08:52:08;;;;;;;29.75;12.48;;;;;;;;;;4901623;29;20370;-74
2022/03/05 08:54:34;;;;;;;25.80;11.75;;;;;;;;;;4901161;29;20048;-74
2022/03/05 08:57:01;;;;;;;26.23;11.27;;;;;;;;;;4885618;29;20051;-74
2022/03/05 08:59:27;;;;;;;28.17;12.48;;;;;;;;;;4900996;29;20139;-74
2022/03/05 09:01:53;;;;;;;27.77;12.13;;;;;;;;;;4901117;29;20051;-71
2022/03/05 09:04:19;;;;;;;30.77;12.55;;;;;;;;;;4901210;29;20062;-71
2022/03/05 09:06:45;;;;;;;30.15;13.43;;;;;;;;;;4900915;29;20131;-71
2022/03/05 09:09:11;;;;;;;30.90;13.63;;;;;;;;;;4900670;29;20091;-71
2022/03/05 09:11:38;;;;;;;27.35;11.82;;;;;;;;;;4901150;29;20131;-71
2022/03/05 09:14:05;;;;;;;35.42;12.38;;;;;;;;;;4918173;29;20123;-71
2022/03/05 09:16:31;;;;;;;28.85;12.77;;;;;;;;;;4900685;29;20044;-74
2022/03/05 09:18:57;;;;;;;27.20;11.88;;;;;;;;;;4900672;29;20071;-74
2022/03/05 09:21:24;;;;;;;27.08;12.00;;;;;;;;;;4900337;29;20488;-74
2022/03/05 09:23:50;;;;;;;34.95;13.27;;;;;;;;;;4900950;29;20044;-74
2022/03/05 09:26:16;;;;;;;41.15;13.68;;;;;;;;;;4900916;29;20048;-74
2022/03/05 09:28:42;;;;;;;38.85;13.90;;;;;;;;;;4884967;29;20048;-74
2022/03/05 09:31:08;;;;;;;34.70;13.95;;;;;;;;;;4900857;29;20061;-71
2022/03/05 09:33:34;;;;;;;33.15;14.02;;;;;;;;;;4900590;29;20040;-71
2022/03/05 09:36:00;;;;;;;32.78;13.30;;;;;;;;;;4900412;29;20075;-72
2022/03/05 09:38:26;;;;;;;32.33;14.27;;;;;;;;;;4900457;29;20584;-72
2022/03/05 09:40:53;;;;;;;35.67;13.07;;;2.70;99.90;;;;;;4900797;29;20485;-75
2022/03/05 09:43:19;;;;;;;32.05;13.35;;;;;;;;;;4900476;29;20046;-75
2022/03/05 09:45:45;;;;;;;33.58;13.85;;;;;;;;;;4900464;29;20135;-72
2022/03/05 09:48:18;;;;;;;35.05;16.10;;;3.00;99.90;;;;;;4917172;29;20062;-75
2022/03/05 09:50:44;;;;;;;33.75;13.88;;;;;;;;;;4900468;29;20449;-75
2022/03/05 09:53:10;;;;;;;33.78;15.02;;;;;;;;;;4900259;29;20040;-72
2022/03/05 09:55:36;;;;;;;33.47;14.70;;;3.20;99.90;;;;;;4899902;29;20048;-72
2022/03/05 09:58:02;;;;;;;34.83;14.32;;;;;;;;;;4900549;29;20103;-75
2022/03/05 10:00:30;;;;;;;35.22;14.50;;;3.80;99.90;;;;;;4900229;29;20051;-72
2022/03/05 10:02:56;;;;;;;36.35;15.18;;;;;;;;;;4900221;29;20040;-72
2022/03/05 10:05:26;;;;;;;37.97;14.43;;;;;;;;;;4900053;29;20103;-75
2022/03/05 10:08:01;;;;;;;40.25;15.95;;;3.60;99.90;;;;;;4900097;29;20044;-75
2022/03/05 10:10:27;;;;;;;33.80;13.45;;;;;;;;;;4900038;29;20527;-75
2022/03/05 10:12:53;;;;;;;36.53;14.70;;;;;;;;;;4900329;29;20040;-72
2022/03/05 10:15:22;;;;;;;32.55;15.02;;;;;;;;;;4900160;29;20044;-75
2022/03/05 10:17:48;;;;;;;34.25;14.65;;;;;;;;;;4900093;29;20052;-75
2022/03/05 10:20:15;;;;;;;36.90;15.73;;;;;;;;;;4900285;29;20111;-75
2022/03/05 10:22:55;;;;;;;38.05;14.60;;;3.90;99.90;;;;;;4900099;29;20055;-75
2022/03/05 10:25:34;;;;;;;36.80;15.30;;;;;;;;;;4884633;29;20059;-75
2022/03/05 10:28:01;;;;;;;37.42;15.73;;;4.10;99.90;;;;;;4916804;29;20048;-75
2022/03/05 10:30:32;;;;;;;34.13;14.55;;;4.10;99.90;;;;;;4884541;29;20036;-71
2022/03/05 10:32:58;;;;;;;39.92;17.02;;;;;;;;;;4899955;29;20440;-71
2022/03/05 10:35:24;;;;;;;37.88;13.93;;;;;;;;;;4884418;29;20044;-70
2022/03/05 10:37:51;;;;;;;36.05;16.48;;;4.40;99.90;;;;;;4899865;29;20108;-70
2022/03/05 10:40:24;;;;;;;37.15;15.93;;;;;;;;;;4899920;29;20048;-70
2022/03/05 10:42:50;;;;;;;37.35;15.40;;;;;;;;;;4899924;29;20044;-74
2022/03/05 10:45:18;;;;;;;36.90;15.65;;;;;;;;;;4899878;29;20048;-74
2022/03/05 10:47:46;;;;;;;35.85;14.93;;;;;;;;;;4899974;29;20564;-74
2022/03/05 10:50:15;;;;;;;36.80;15.27;;;;;;;;;;4899967;29;20389;-74
2022/03/05 10:52:49;;;;;;;39.85;15.93;;;4.30;99.90;;;;;;4899754;29;20078;-74
2022/03/05 10:55:16;;;;;;;36.13;15.18;;;;;;;;;;4899621;29;20519;-74
2022/03/05 10:58:00;;;;;;;38.95;15.65;;;4.80;99.90;;;;;;4899830;29;20087;-74
2022/03/05 11:00:26;;;;;;;39.38;14.68;;;;;;;;;;4899601;29;20051;-74
2022/03/05 11:02:53;;;;;;;36.25;15.35;;;;;;;;;;4899764;29;20499;-74
2022/03/05 11:05:19;;;;;;;37.40;15.85;;;5.00;99.90;;;;;;4899744;29;20100;-74
2022/03/05 11:07:48;;;;;;;39.92;16.40;;;5.10;99.90;;;;;;4885826;29;20055;-74
2022/03/05 11:10:18;;;;;;;40.17;15.40;;;5.30;99.90;;;;;;4919920;29;20052;-74
2022/03/05 11:12:51;;;;;;;38.58;15.77;;;5.40;99.90;;;;;;4902844;29;20063;-74
2022/03/05 11:15:18;;;;;;;37.83;14.80;;;;;;;;;;4903069;29;20054;-74
2022/03/05 11:17:46;;;;;;;38.92;15.15;;;5.60;99.90;;;;;;4903213;29;20044;-74
2022/03/05 11:20:13;;;;;;;36.70;15.30;;;;;;;;;;4903183;29;20059;-74
2022/03/05 11:22:40;;;;;;;38.38;15.63;;;5.90;99.90;;;;;;4902690;29;20135;-74
2022/03/05 11:25:07;;;;;;;36.10;15.23;;;;;;;;;;4902654;29;20052;-69
2022/03/05 11:27:33;;;;;;;36.40;16.00;;;;;;;;;;4902731;29;20047;-70
2022/03/05 11:30:03;;;;;;;39.10;16.40;;;6.00;99.90;;;;;;4887433;29;20048;-70
2022/03/05 11:32:30;;;;;;;38.03;14.95;;;;;;;;;;4902946;29;20447;-69
2022/03/05 11:34:57;;;;;;;39.78;16.48;;;;;;;;;;4902736;29;20044;-74
2022/03/05 11:37:31;;;;;;;35.72;14.98;;;6.20;99.90;;;;;;4919525;29;20109;-74
2022/03/05 11:40:00;;;;;;;36.88;15.98;;;6.10;99.90;;;;;;4919420;29;20087;-70
2022/03/05 11:42:27;;;;;;;35.65;15.02;;;6.40;99.90;;;;;;4902583;29;20477;-74
2022/03/05 11:44:53;;;;;;;38.85;15.27;;;;;;;;;;4902475;29;20044;-74
2022/03/05 11:47:19;;;;;;;42.10;17.83;;;;;;;;;;4902359;29;20040;-74
2022/03/05 11:49:58;;;;;;;38.30;15.93;;;6.90;99.90;;;;;;4902409;29;20048;-75
2022/03/05 11:52:46;;;;;;;37.03;14.88;;;6.90;99.90;;;;;;4902370;29;20114;-74
2022/03/05 11:55:22;;;;;;;33.38;14.93;;;7.00;99.80;;;;;;4902364;29;20055;-74
2022/03/05 11:57:51;;;;;;;39.03;15.50;;;7.40;99.90;;;;;;4902316;29;20044;-74
2022/03/05 12:00:27;;;;;;;40.20;15.82;;;7.30;99.70;;;;;;4902308;29;20551;-74
2022/03/05 12:02:54;;;;;;;34.33;14.90;;;7.30;99.90;;;;;;4902184;29;20079;-74
2022/03/05 12:05:38;;;;;;;31.45;14.98;;;7.20;99.40;;;;;;4902128;29;20058;-74
2022/03/05 12:08:06;;;;;;;37.35;16.17;;;7.50;99.90;;;;;;4886499;29;20075;-74
2022/03/05 12:10:34;;;;;;;32.88;14.50;;;7.60;99.00;;;;;;4901793;29;20405;-74
2022/03/05 12:13:07;;;;;;;36.30;14.73;;;7.70;98.70;;;;;;4918987;29;20040;-74
2022/03/05 12:15:35;;;;;;;37.15;15.80;;;7.80;99.60;;;;;;4901742;29;20485;-74
2022/03/05 12:18:01;;;;;;;37.35;15.23;;;;;;;;;;4902010;29;20059;-74
2022/03/05 12:20:35;;;;;;;32.45;15.30;;;7.70;98.90;;;;;;4901931;29;20087;-74
2022/03/05 12:23:07;;;;;;;35.67;14.60;;;8.20;99.90;;;;;;4902024;29;20388;-74
2022/03/05 12:25:37;;;;;;;30.95;14.27;;;8.00;99.10;;;;;;4901791;29;20047;-74
2022/03/05 12:28:04;;;;;;;35.92;15.38;;;7.90;98.90;;;;;;4901892;29;20456;-74
2022/03/05 12:30:37;;;;;;;37.53;15.02;;;8.10;98.90;;;;;;4901962;29;20116;-74
2022/03/05 12:33:05;;;;;;;33.97;15.75;;;8.30;98.10;;;;;;4901579;29;20473;-74
2022/03/05 12:35:33;;;;;;;38.22;15.73;;;8.20;98.30;;;;;;4918974;29;20044;-74
2022/03/05 12:37:59;;;;;;;33.83;15.77;;;;;;;;;;4901200;29;20517;-74
2022/03/05 12:40:27;;;;;;;31.85;14.85;;;8.50;98.00;;;;;;4901505;29;20055;-75
2022/03/05 12:42:54;;;;;;;35.83;14.52;;;8.80;98.10;;;;;;4918452;29;20080;-75
2022/03/05 12:45:31;;;;;;;34.53;15.25;;;8.70;97.90;;;;;;4901374;29;20505;-74
2022/03/05 12:47:59;;;;;;;35.60;15.52;;;8.80;97.60;;;;;;4901323;29;20052;-74
2022/03/05 12:50:25;;;;;;;36.10;13.95;;;;;;;;;;4901660;29;20172;-74
2022/03/05 12:52:59;;;;;;;36.60;14.93;;;8.80;97.10;;;;;;4918363;29;20126;-74
2022/03/05 12:55:41;;;;;;;36.72;15.60;;;8.60;99.90;;;;;;4901536;29;20048;-74
2022/03/05 12:58:09;;;;;;;38.83;16.35;;;8.80;97.10;;;;;;4901525;29;20059;-70
2022/03/05 13:00:36;;;;;;;32.47;15.10;;;9.10;96.70;;;;;;4900967;29;20139;-75
2022/03/05 13:03:02;;;;;;;33.85;15.85;;;;;;;;;;4918335;29;20043;-75
2022/03/05 13:05:28;;;;;;;33.88;14.40;;;;;;;;;;4901288;29;20036;-74
2022/03/05 13:07:53;;;;;;;34.45;14.15;;;9.60;99.90;;;;;;4900850;29;20056;-74
2022/03/05 13:10:20;;;;;;;33.10;14.40;;;9.40;95.80;;;;;;4900698;29;20060;-74
2022/03/05 13:12:46;;;;;;;32.65;14.48;;;;;;;;;;4900765;29;20434;-74
2022/03/05 13:15:32;;;;;;;26.80;13.43;;;9.50;95.70;;;;;;4885242;29;20036;-74
2022/03/05 13:18:10;;;;;;;33.35;14.95;;;9.60;96.60;;;;;;4900836;29;20048;-74
2022/03/05 13:20:36;;;;;;;31.55;14.82;;;9.70;95.90;;;;;;4900817;29;20076;-74
2022/03/05 13:23:03;;;;;;;33.60;14.30;;;10.00;95.30;;;;;;4885110;29;20131;-75
2022/03/05 13:25:29;;;;;;;33.65;15.02;;;;;;;;;;4900744;29;20052;-74
2022/03/05 13:27:56;;;;;;;33.17;15.32;;;;;;;;;;4900485;29;20131;-74
2022/03/05 13:30:26;;;;;;;31.02;14.20;;;;;;;;;;4899836;29;20044;-74
2022/03/05 13:32:52;;;;;;;34.00;15.20;;;;;;;;;;4917488;29;20048;-74
2022/03/05 13:35:19;;;;;;;38.10;16.45;;;;;;;;;;4884956;29;20080;-74
2022/03/05 13:37:46;;;;;;;38.17;15.77;;;10.30;94.80;;;;;;4900868;29;20084;-74
2022/03/05 13:40:14;;;;;;;36.42;15.88;;;10.30;94.70;;;;;;4900519;29;20054;-74
2022/03/05 13:42:40;;;;;;;33.00;15.18;;;;;;;;;;4900845;29;20063;-74
2022/03/05 13:45:09;;;;;;;32.47;16.02;;;10.30;96.60;;;;;;4900485;29;20476;-74
2022/03/05 13:47:46;;;;;;;38.58;16.88;;;10.10;93.70;;;;;;4900314;29;20079;-74
2022/03/05 13:50:15;;;;;;;32.08;14.85;;;9.50;93.90;;;;;;4900519;29;20563;-74
2022/03/05 13:52:57;;;;;;;35.45;15.48;;;9.30;94.50;;;;;;4917336;29;20091;-74
2022/03/05 13:55:23;;;;;;;37.15;15.68;;;;;;;;;;4900470;29;20589;-74